createdAt,value
2022-10-03T00:00:16.503Z,2.50
2022-10-03T00:01:50.879Z,1.90
2022-10-03T00:03:12.046Z,2.67
2022-10-03T00:04:39.276Z,2.50
2022-10-03T00:05:53.711Z,2.40
2022-10-03T00:07:29.992Z,2.03
2022-10-03T00:08:58.373Z,2.43
2022-10-03T00:10:51.902Z,1.90
2022-10-03T00:12:10.030Z,2.50
2022-10-03T00:13:33.182Z,2.00
2022-10-03T00:15:03.695Z,2.23
2022-10-03T00:16:29.847Z,2.40
2022-10-03T00:17:51.536Z,2.30
2022-10-03T00:19:17.726Z,2.53
2022-10-03T00:20:19.884Z,1.70
2022-10-03T00:21:44.139Z,2.20
2022-10-03T00:23:16.041Z,2.40
2022-10-03T00:25:01.536Z,1.97
2022-10-03T00:26:26.807Z,1.93
2022-10-03T00:27:49.685Z,2.00
2022-10-03T00:28:59.029Z,2.20
2022-10-03T00:30:28.587Z,2.70
2022-10-03T00:31:47.057Z,2.30
2022-10-03T00:33:27.933Z,2.20
2022-10-03T00:34:49.027Z,2.10
2022-10-03T00:36:12.072Z,2.70
2022-10-03T00:37:20.331Z,2.07
2022-10-03T00:38:59.953Z,1.90
2022-10-03T00:40:23.319Z,2.20
2022-10-03T00:42:02.421Z,2.40
2022-10-03T00:43:13.821Z,2.00
2022-10-03T00:44:34.368Z,2.20
2022-10-03T00:46:11.228Z,2.37
2022-10-03T00:47:30.766Z,2.13
2022-10-03T00:49:07.057Z,2.10
2022-10-03T00:50:18.128Z,2.10
2022-10-03T00:51:42.389Z,2.20
2022-10-03T00:53:10.981Z,2.37
2022-10-03T00:54:25.512Z,2.07
2022-10-03T00:55:40.898Z,2.40
2022-10-03T00:57:00.686Z,2.47
2022-10-03T00:58:20.825Z,2.47
2022-10-03T00:59:48.425Z,2.10
2022-10-03T01:00:52.875Z,2.27
2022-10-03T01:01:55.685Z,2.10
2022-10-03T01:02:58.512Z,2.10
2022-10-03T01:04:27.340Z,2.10
2022-10-03T01:05:35.394Z,2.40
2022-10-03T01:07:06.040Z,2.23
2022-10-03T01:08:19.483Z,2.20
2022-10-03T01:09:59.351Z,2.23
2022-10-03T01:11:23.529Z,1.90
2022-10-03T01:12:56.893Z,2.23
2022-10-03T01:14:27.083Z,2.20
2022-10-03T01:15:48.209Z,2.43
2022-10-03T01:17:02.821Z,2.53
2022-10-03T01:18:35.304Z,1.70
2022-10-03T01:20:01.531Z,2.27
2022-10-03T01:21:23.602Z,2.77
2022-10-03T01:22:44.231Z,2.23
2022-10-03T01:24:16.378Z,1.77
2022-10-03T01:25:25.703Z,1.83
2022-10-03T01:26:47.883Z,2.00
2022-10-03T01:28:33.745Z,2.17
2022-10-03T01:30:03.944Z,2.17
2022-10-03T01:31:10.421Z,2.20
2022-10-03T01:32:53.126Z,2.27
2022-10-03T01:34:05.812Z,2.17
2022-10-03T01:35:19.874Z,2.20
2022-10-03T01:36:33.488Z,2.10
2022-10-03T01:37:35.655Z,2.17
2022-10-03T01:39:04.690Z,2.27
2022-10-03T01:40:32.264Z,1.90
2022-10-03T01:41:34.467Z,1.93
2022-10-03T01:42:55.045Z,2.37
2022-10-03T01:44:04.804Z,2.13
2022-10-03T01:45:47.653Z,2.50
2022-10-03T01:47:04.655Z,2.20
2022-10-03T01:48:21.886Z,2.53
2022-10-03T01:49:56.949Z,2.57
2022-10-03T01:51:41.151Z,2.00
2022-10-03T01:53:05.061Z,2.10
2022-10-03T01:54:07.515Z,2.10
2022-10-03T01:55:23.372Z,2.33
2022-10-03T01:56:34.566Z,2.50
2022-10-03T01:58:04.125Z,2.30
2022-10-03T01:59:20.373Z,2.17
2022-10-03T02:00:25.962Z,2.70
2022-10-03T02:01:31.073Z,2.23
2022-10-03T02:03:11.291Z,2.53
2022-10-03T02:04:31.842Z,2.40
2022-10-03T02:06:11.687Z,2.43
2022-10-03T02:07:29.937Z,2.27
2022-10-03T02:08:41.108Z,2.00
2022-10-03T02:10:03.120Z,2.00
2022-10-03T02:11:08.529Z,1.90
2022-10-03T02:12:25.519Z,2.37
2022-10-03T02:13:45.703Z,2.20
2022-10-03T02:15:07.718Z,1.93
2022-10-03T02:16:21.298Z,2.13
2022-10-03T02:17:53.082Z,2.53
2022-10-03T02:19:06.140Z,2.23
2022-10-03T02:20:27.991Z,2.30
2022-10-03T02:21:35.119Z,2.33
2022-10-03T02:22:45.144Z,2.30
2022-10-03T02:23:49.880Z,2.30
2022-10-03T02:25:21.847Z,2.23
2022-10-03T02:26:42.669Z,2.37
2022-10-03T02:28:12.511Z,2.00
2022-10-03T02:29:54.398Z,1.93
2022-10-03T02:31:18.343Z,2.50
2022-10-03T02:32:29.374Z,2.20
2022-10-03T02:33:56.680Z,2.67
2022-10-03T02:35:22.886Z,2.53
2022-10-03T02:36:57.939Z,2.20
2022-10-03T02:38:15.267Z,2.37
2022-10-03T02:39:23.482Z,2.30
2022-10-03T02:40:53.518Z,2.37
2022-10-03T02:42:33.529Z,2.33
2022-10-03T02:43:57.319Z,2.03
2022-10-03T02:45:39.179Z,2.03
2022-10-03T02:46:58.712Z,2.53
2022-10-03T02:48:41.183Z,2.27
2022-10-03T02:50:09.199Z,2.27
2022-10-03T02:51:18.193Z,2.30
2022-10-03T02:52:50.382Z,2.63
2022-10-03T02:54:11.242Z,2.77
2022-10-03T02:55:40.176Z,2.70
2022-10-03T02:57:26.129Z,2.43
2022-10-03T02:59:04.790Z,2.40
2022-10-03T03:00:12.836Z,2.20
2022-10-03T03:01:50.204Z,2.07
2022-10-03T03:03:12.563Z,2.63
2022-10-03T03:04:20.816Z,3.13
2022-10-03T03:05:54.217Z,2.60
2022-10-03T03:07:03.213Z,2.57
2022-10-03T03:08:20.373Z,3.03
2022-10-03T03:10:04.886Z,2.70
2022-10-03T03:11:26.654Z,2.63
2022-10-03T03:12:47.686Z,3.10
2022-10-03T03:13:54.636Z,2.80
2022-10-03T03:15:26.293Z,2.90
2022-10-03T03:16:47.886Z,2.87
2022-10-03T03:18:24.441Z,2.80
2022-10-03T03:19:38.679Z,2.80
2022-10-03T03:21:17.364Z,2.70
2022-10-03T03:22:28.009Z,2.70
2022-10-03T03:23:52.151Z,2.87
2022-10-03T03:25:26.859Z,2.77
2022-10-03T03:26:54.953Z,2.90
2022-10-03T03:28:26.551Z,2.90
2022-10-03T03:30:22.373Z,2.47
2022-10-03T03:31:36.472Z,2.63
2022-10-03T03:32:56.435Z,3.10
2022-10-03T03:34:11.554Z,2.90
2022-10-03T03:35:52.255Z,2.77
2022-10-03T03:37:30.281Z,2.70
2022-10-03T03:38:39.987Z,2.60
2022-10-03T03:40:00.957Z,2.97
2022-10-03T03:41:46.577Z,2.60
2022-10-03T03:42:48.716Z,2.63
2022-10-03T03:44:19.848Z,2.70
2022-10-03T03:45:47.166Z,2.47
2022-10-03T03:47:21.607Z,2.40
2022-10-03T03:48:42.481Z,2.67
2022-10-03T03:50:11.227Z,2.50
2022-10-03T03:51:42.706Z,2.50
2022-10-03T03:53:22.079Z,2.50
2022-10-03T03:54:52.305Z,2.50
2022-10-03T03:56:27.987Z,2.63
2022-10-03T03:57:45.365Z,2.57
2022-10-03T03:58:56.149Z,2.60
2022-10-03T04:00:03.941Z,2.47
2022-10-03T04:01:33.096Z,2.70
2022-10-03T04:03:16.372Z,2.60
2022-10-03T04:04:27.619Z,2.93
2022-10-03T04:06:06.034Z,3.10
2022-10-03T04:07:41.672Z,2.37
2022-10-03T04:09:00.928Z,2.80
2022-10-03T04:10:27.515Z,2.47
2022-10-03T04:11:53.842Z,2.70
2022-10-03T04:13:24.477Z,2.47
2022-10-03T04:14:34.999Z,2.93
2022-10-03T04:15:39.973Z,2.70
2022-10-03T04:17:26.670Z,2.90
2022-10-03T04:18:59.479Z,2.97
2022-10-03T04:20:09.960Z,2.73
2022-10-03T04:21:23.935Z,3.13
2022-10-03T04:23:07.427Z,2.77
2022-10-03T04:24:40.387Z,2.80
2022-10-03T04:26:15.946Z,2.70
2022-10-03T04:27:38.181Z,2.60
2022-10-03T04:28:55.519Z,2.80
2022-10-03T04:30:18.683Z,2.80
2022-10-03T04:31:41.929Z,2.60
2022-10-03T04:33:06.973Z,2.90
2022-10-03T04:34:41.726Z,2.90
2022-10-03T04:36:09.995Z,2.90
2022-10-03T04:37:23.896Z,2.93
2022-10-03T04:38:47.061Z,3.07
2022-10-03T04:40:24.820Z,2.93
2022-10-03T04:41:43.322Z,2.77
2022-10-03T04:43:34.835Z,3.23
2022-10-03T04:44:45.852Z,2.93
2022-10-03T04:46:43.604Z,2.47
2022-10-03T04:47:53.851Z,3.00
2022-10-03T04:49:35.785Z,2.73
2022-10-03T04:50:44.961Z,2.87
2022-10-03T04:51:58.251Z,2.80
2022-10-03T04:53:19.447Z,2.80
2022-10-03T04:54:35.755Z,2.80
2022-10-03T04:55:49.134Z,3.50
2022-10-03T04:57:11.573Z,3.20
2022-10-03T04:58:48.103Z,3.40
2022-10-03T05:00:00.647Z,3.07
2022-10-03T05:01:24.893Z,3.10
2022-10-03T05:02:36.739Z,3.43
2022-10-03T05:03:43.622Z,3.13
2022-10-03T05:04:58.712Z,2.93
2022-10-03T05:06:08.432Z,3.33
2022-10-03T05:07:29.386Z,2.90
2022-10-03T05:08:56.065Z,3.40
2022-10-03T05:10:23.194Z,2.87
2022-10-03T05:11:43.838Z,3.20
2022-10-03T05:13:21.955Z,2.97
2022-10-03T05:14:52.221Z,3.37
2022-10-03T05:16:15.407Z,3.07
2022-10-03T05:17:37.417Z,3.20
2022-10-03T05:19:06.202Z,2.67
2022-10-03T05:20:24.464Z,2.83
2022-10-03T05:21:47.312Z,3.03
2022-10-03T05:23:01.875Z,3.17
2022-10-03T05:24:36.075Z,2.73
2022-10-03T05:26:32.356Z,3.23
2022-10-03T05:28:11.288Z,2.67
2022-10-03T05:29:40.099Z,3.33
2022-10-03T05:30:55.950Z,2.60
2022-10-03T05:32:13.006Z,3.10
2022-10-03T05:33:40.283Z,2.77
2022-10-03T05:35:00.558Z,2.63
2022-10-03T05:36:24.688Z,2.70
2022-10-03T05:37:48.360Z,2.63
2022-10-03T05:39:28.420Z,2.60
2022-10-03T05:40:34.728Z,2.43
2022-10-03T05:41:40.664Z,2.50
2022-10-03T05:42:55.778Z,2.70
2022-10-03T05:44:15.853Z,2.33
2022-10-03T05:45:37.030Z,2.60
2022-10-03T05:46:45.147Z,2.70
2022-10-03T05:47:53.748Z,3.23
2022-10-03T05:48:55.941Z,2.73
2022-10-03T05:50:35.250Z,2.33
2022-10-03T05:51:56.464Z,2.80
2022-10-03T05:53:01.404Z,2.67
2022-10-03T05:54:27.062Z,2.40
2022-10-03T05:55:49.234Z,2.47
2022-10-03T05:57:27.268Z,2.53
2022-10-03T05:59:14.065Z,2.70
2022-10-03T06:00:46.169Z,2.30
2022-10-03T06:01:55.501Z,2.37
2022-10-03T06:03:27.432Z,2.97
2022-10-03T06:04:46.561Z,2.40
2022-10-03T06:06:21.004Z,2.50
2022-10-03T06:07:29.749Z,2.50
2022-10-03T06:09:13.300Z,2.60
2022-10-03T06:10:40.126Z,2.60
2022-10-03T06:11:52.365Z,2.50
2022-10-03T06:12:57.682Z,2.60
2022-10-03T06:14:35.344Z,3.00
2022-10-03T06:15:55.559Z,2.60
2022-10-03T06:17:16.544Z,2.83
2022-10-03T06:18:32.049Z,2.63
2022-10-03T06:19:46.579Z,2.70
2022-10-03T06:21:04.125Z,2.30
2022-10-03T06:22:25.121Z,3.10
2022-10-03T06:23:51.672Z,3.07
2022-10-03T06:25:12.203Z,2.70
2022-10-03T06:26:52.108Z,2.87
2022-10-03T06:28:19.428Z,2.67
2022-10-03T06:29:43.272Z,2.80
2022-10-03T06:31:05.839Z,2.77
2022-10-03T06:32:24.461Z,2.90
2022-10-03T06:34:14.661Z,2.80
2022-10-03T06:35:41.356Z,3.00
2022-10-03T06:37:21.400Z,2.90
2022-10-03T06:39:01.232Z,2.87
2022-10-03T06:40:24.789Z,2.73
2022-10-03T06:41:45.773Z,2.53
2022-10-03T06:43:38.292Z,2.87
2022-10-03T06:44:57.851Z,3.00
2022-10-03T06:46:22.210Z,3.10
2022-10-03T06:47:53.574Z,2.70
2022-10-03T06:49:32.287Z,3.30
2022-10-03T06:50:49.047Z,3.27
2022-10-03T06:51:58.864Z,2.90
2022-10-03T06:53:38.929Z,3.10
2022-10-03T06:54:53.093Z,2.90
2022-10-03T06:56:06.950Z,3.60
2022-10-03T06:58:01.745Z,3.30
2022-10-03T06:59:26.118Z,3.30
2022-10-03T07:00:50.704Z,3.30
2022-10-03T07:02:06.658Z,3.27
2022-10-03T07:03:15.117Z,3.10
2022-10-03T07:04:52.630Z,3.00
2022-10-03T07:06:25.362Z,3.33
2022-10-03T07:08:06.265Z,3.17
2022-10-03T07:09:30.455Z,3.73
2022-10-03T07:10:52.576Z,2.60
2022-10-03T07:12:34.218Z,3.07
2022-10-03T07:13:45.109Z,3.40
2022-10-03T07:15:02.220Z,2.70
2022-10-03T07:16:28.319Z,3.30
2022-10-03T07:17:40.610Z,3.00
2022-10-03T07:19:22.920Z,2.87
2022-10-03T07:21:02.546Z,3.10
2022-10-03T07:22:23.646Z,3.53
2022-10-03T07:24:03.053Z,3.20
2022-10-03T07:25:40.162Z,3.13
2022-10-03T07:27:13.276Z,3.00
2022-10-03T07:28:45.865Z,2.83
2022-10-03T07:29:58.971Z,3.03
2022-10-03T07:31:24.289Z,2.83
2022-10-03T07:32:55.713Z,2.70
2022-10-03T07:34:17.973Z,2.50
2022-10-03T07:35:58.011Z,2.90
2022-10-03T07:37:38.350Z,3.00
2022-10-03T07:38:58.614Z,2.87
2022-10-03T07:40:35.976Z,2.90
2022-10-03T07:42:00.217Z,3.03
2022-10-03T07:43:18.626Z,2.67
2022-10-03T07:44:36.045Z,3.10
2022-10-03T07:45:45.838Z,2.83
2022-10-03T07:47:25.881Z,3.00
2022-10-03T07:48:58.626Z,3.20
2022-10-03T07:50:00.799Z,2.97
2022-10-03T07:51:24.081Z,2.83
2022-10-03T07:52:29.733Z,2.33
2022-10-03T07:54:09.149Z,2.90
2022-10-03T07:55:26.627Z,3.27
2022-10-03T07:56:56.596Z,2.50
2022-10-03T07:58:44.463Z,2.80
2022-10-03T07:59:55.806Z,2.77
2022-10-03T08:01:28.509Z,2.60
2022-10-03T08:03:08.090Z,2.97
2022-10-03T08:04:28.725Z,2.70
2022-10-03T08:05:54.691Z,2.93
2022-10-03T08:07:45.346Z,2.67
2022-10-03T08:08:59.278Z,2.67
2022-10-03T08:10:40.971Z,2.70
2022-10-03T08:11:45.875Z,2.80
2022-10-03T08:13:16.123Z,3.07
2022-10-03T08:14:41.341Z,3.10
2022-10-03T08:16:12.023Z,2.97
2022-10-03T08:17:30.704Z,3.10
2022-10-03T08:18:44.108Z,3.27
2022-10-03T08:19:58.175Z,2.80
2022-10-03T08:21:16.264Z,3.00
2022-10-03T08:22:46.119Z,3.13
2022-10-03T08:24:25.747Z,3.00
2022-10-03T08:25:31.113Z,3.37
2022-10-03T08:26:51.241Z,3.40
2022-10-03T08:28:21.321Z,3.23
2022-10-03T08:30:00.030Z,2.97
2022-10-03T08:31:17.435Z,2.93
2022-10-03T08:32:37.890Z,3.10
2022-10-03T08:33:43.107Z,2.70
2022-10-03T08:35:04.078Z,3.23
2022-10-03T08:36:12.340Z,3.10
2022-10-03T08:37:29.823Z,2.90
2022-10-03T08:38:42.059Z,3.00
2022-10-03T08:39:59.248Z,2.70
2022-10-03T08:41:19.014Z,2.70
2022-10-03T08:43:00.416Z,2.97
2022-10-03T08:44:30.514Z,2.92
2022-10-03T08:45:53.015Z,3.03
2022-10-03T08:47:07.434Z,2.63
2022-10-03T08:48:44.611Z,3.00
2022-10-03T08:50:05.940Z,2.70
2022-10-03T08:51:11.272Z,2.70
2022-10-03T08:52:50.640Z,2.90
2022-10-03T08:54:15.461Z,2.90
2022-10-03T08:55:45.785Z,2.77
2022-10-03T08:57:09.495Z,2.67
2022-10-03T08:58:17.581Z,2.87
2022-10-03T08:59:56.859Z,3.10
2022-10-03T09:01:11.161Z,2.83
2022-10-03T09:02:34.434Z,2.70
2022-10-03T09:04:04.283Z,3.05
2022-10-03T09:05:30.556Z,3.00
2022-10-03T09:06:35.522Z,2.55
2022-10-03T09:08:11.607Z,3.03
2022-10-03T09:09:25.597Z,3.20
2022-10-03T09:10:46.540Z,2.80
2022-10-03T09:11:48.685Z,3.20
2022-10-03T09:13:21.876Z,2.83
2022-10-03T09:14:56.468Z,2.75
2022-10-03T09:16:36.340Z,2.70
2022-10-03T09:17:57.057Z,2.78
2022-10-03T09:19:17.126Z,2.75
2022-10-03T09:20:53.437Z,2.60
2022-10-03T09:22:40.054Z,2.67
2022-10-03T09:24:01.068Z,2.80
2022-10-03T09:25:11.759Z,2.92
2022-10-03T09:26:47.000Z,2.70
2022-10-03T09:28:04.472Z,3.17
2022-10-03T09:29:21.662Z,2.60
2022-10-03T09:30:35.806Z,2.60
2022-10-03T09:32:14.675Z,2.50
2022-10-03T09:33:55.430Z,2.55
2022-10-03T09:35:22.714Z,2.72
2022-10-03T09:36:33.918Z,2.45
2022-10-03T09:37:44.037Z,2.90
2022-10-03T09:39:00.645Z,2.55
2022-10-03T09:40:17.851Z,2.95
2022-10-03T09:41:38.895Z,3.15
2022-10-03T09:43:07.576Z,2.50
2022-10-03T09:44:25.071Z,2.58
2022-10-03T09:45:48.147Z,2.97
2022-10-03T09:47:35.355Z,2.42
2022-10-03T09:49:04.945Z,2.33
2022-10-03T09:50:31.619Z,2.50
2022-10-03T09:51:54.039Z,2.40
2022-10-03T09:53:36.347Z,2.58
2022-10-03T09:55:16.051Z,2.40
2022-10-03T09:56:33.121Z,2.33
2022-10-03T09:58:11.264Z,2.45
2022-10-03T09:59:40.404Z,2.28
2022-10-03T10:01:03.111Z,2.33
2022-10-03T10:02:45.817Z,2.15
2022-10-03T10:04:00.654Z,2.40
2022-10-03T10:05:21.489Z,2.13
2022-10-03T10:06:39.336Z,2.33
2022-10-03T10:08:04.679Z,2.05
2022-10-03T10:09:25.512Z,2.13
2022-10-03T10:10:53.717Z,2.10
2022-10-03T10:12:10.916Z,2.13
2022-10-03T10:13:19.338Z,2.47
2022-10-03T10:14:33.540Z,2.42
2022-10-03T10:15:57.129Z,2.28
2022-10-03T10:17:30.673Z,2.38
2022-10-03T10:18:49.929Z,2.47
2022-10-03T10:20:39.416Z,2.40
2022-10-03T10:21:50.026Z,2.20
2022-10-03T10:23:27.698Z,2.08
2022-10-03T10:25:14.374Z,2.33
2022-10-03T10:26:51.979Z,2.47
2022-10-03T10:28:00.331Z,1.98
2022-10-03T10:29:27.827Z,2.13
2022-10-03T10:31:00.188Z,2.17
2022-10-03T10:32:21.526Z,2.40
2022-10-03T10:34:22.020Z,2.28
2022-10-03T10:35:28.871Z,2.30
2022-10-03T10:36:45.987Z,2.28
2022-10-03T10:37:55.148Z,2.10
2022-10-03T10:39:35.047Z,2.30
2022-10-03T10:40:47.208Z,2.45
2022-10-03T10:42:17.894Z,2.10
2022-10-03T10:43:57.542Z,2.00
2022-10-03T10:45:41.455Z,2.10
2022-10-03T10:47:11.503Z,2.10
2022-10-03T10:48:25.994Z,2.35
2022-10-03T10:49:52.491Z,1.88
2022-10-03T10:51:25.653Z,2.20
2022-10-03T10:52:49.434Z,2.20
2022-10-03T10:54:23.390Z,2.33
2022-10-03T10:55:56.386Z,2.53
2022-10-03T10:57:12.166Z,2.15
2022-10-03T10:58:36.296Z,2.88
2022-10-03T11:00:02.931Z,2.00
2022-10-03T11:01:35.715Z,2.30
2022-10-03T11:02:59.859Z,2.00
2022-10-03T11:04:24.017Z,2.15
2022-10-03T11:06:00.937Z,2.15
2022-10-03T11:07:15.729Z,2.10
2022-10-03T11:08:50.036Z,2.42
2022-10-03T11:10:01.113Z,2.40
2022-10-03T11:11:24.363Z,2.22
2022-10-03T11:12:58.863Z,2.40
2022-10-03T11:14:28.365Z,2.40
2022-10-03T11:15:33.168Z,2.25
2022-10-03T11:17:02.993Z,2.20
2022-10-03T11:18:05.152Z,2.03
2022-10-03T11:19:47.853Z,1.90
2022-10-03T11:21:10.693Z,2.35
2022-10-03T11:22:49.425Z,1.80
2022-10-03T11:24:27.781Z,2.15
2022-10-03T11:26:04.014Z,2.08
2022-10-03T11:27:12.305Z,1.90
2022-10-03T11:28:36.270Z,2.10
2022-10-03T11:30:06.667Z,1.88
2022-10-03T11:31:20.125Z,1.70
2022-10-03T11:32:22.561Z,2.13
2022-10-03T11:33:55.052Z,2.05
2022-10-03T11:35:17.916Z,2.05
2022-10-03T11:36:32.284Z,1.83
2022-10-03T11:37:40.901Z,1.70
2022-10-03T11:39:03.875Z,1.90
2022-10-03T11:40:28.511Z,2.10
2022-10-03T11:42:08.345Z,2.40
2022-10-03T11:43:52.235Z,2.00
2022-10-03T11:45:19.910Z,1.83
2022-10-03T11:46:59.689Z,1.80
2022-10-03T11:48:32.225Z,2.22
2022-10-03T11:50:03.215Z,2.13
2022-10-03T11:51:23.824Z,2.17
2022-10-03T11:52:43.529Z,2.20
2022-10-03T11:54:26.257Z,2.25
2022-10-03T11:56:00.265Z,2.20
2022-10-03T11:57:13.829Z,2.10
2022-10-03T11:58:35.614Z,2.03
2022-10-03T12:00:05.292Z,1.92
2022-10-03T12:01:22.494Z,1.95
2022-10-03T12:02:41.959Z,2.15
2022-10-03T12:03:53.524Z,2.17
2022-10-03T12:05:20.734Z,1.60
2022-10-03T12:07:15.894Z,2.00
2022-10-03T12:08:54.413Z,1.80
2022-10-03T12:10:48.277Z,1.67
2022-10-03T12:11:54.207Z,2.20
2022-10-03T12:12:58.033Z,2.10
2022-10-03T12:14:11.613Z,1.73
2022-10-03T12:15:22.813Z,1.63
2022-10-03T12:16:32.092Z,1.98
2022-10-03T12:17:46.366Z,1.88
2022-10-03T12:18:48.516Z,2.20
2022-10-03T12:20:02.720Z,1.83
2022-10-03T12:21:21.599Z,2.20
2022-10-03T12:22:50.273Z,1.90
2022-10-03T12:24:14.064Z,2.17
2022-10-03T12:25:25.190Z,1.88
2022-10-03T12:26:32.070Z,1.80
2022-10-03T12:27:47.470Z,1.75
2022-10-03T12:28:55.490Z,1.70
2022-10-03T12:30:02.387Z,2.17
2022-10-03T12:31:19.269Z,2.00
2022-10-03T12:32:36.607Z,2.22
2022-10-03T12:33:57.022Z,1.90
2022-10-03T12:35:15.423Z,1.83
2022-10-03T12:36:24.124Z,2.20
2022-10-03T12:37:57.474Z,2.05
2022-10-03T12:39:14.819Z,2.20
2022-10-03T12:40:32.804Z,2.00
2022-10-03T12:42:07.111Z,1.88
2022-10-03T12:43:37.582Z,1.80
2022-10-03T12:45:02.521Z,2.05
2022-10-03T12:46:16.266Z,1.70
2022-10-03T12:47:54.793Z,1.90
2022-10-03T12:49:25.913Z,1.92
2022-10-03T12:50:48.543Z,2.10
2022-10-03T12:52:00.188Z,1.88
2022-10-03T12:53:15.384Z,2.05
2022-10-03T12:54:45.473Z,1.77
2022-10-03T12:56:15.741Z,1.98
2022-10-03T12:57:39.886Z,1.50
2022-10-03T12:59:03.417Z,2.08
2022-10-03T13:00:22.587Z,1.80
2022-10-03T13:02:03.202Z,1.95
2022-10-03T13:03:17.541Z,1.67
2022-10-03T13:04:47.749Z,1.90
2022-10-03T13:06:51.091Z,2.00
2022-10-03T13:07:58.333Z,1.80
2022-10-03T13:09:25.303Z,1.60
2022-10-03T13:10:45.808Z,1.52
2022-10-03T13:12:24.223Z,1.70
2022-10-03T13:14:02.132Z,1.88
2022-10-03T13:15:44.448Z,1.70
2022-10-03T13:17:14.802Z,1.77
2022-10-03T13:18:23.051Z,1.40
2022-10-03T13:19:32.069Z,1.85
2022-10-03T13:20:47.169Z,1.70
2022-10-03T13:22:09.722Z,1.73
2022-10-03T13:23:11.959Z,1.67
2022-10-03T13:24:50.837Z,1.83
2022-10-03T13:25:55.990Z,1.70
2022-10-03T13:27:36.116Z,1.60
2022-10-03T13:29:03.077Z,1.77
2022-10-03T13:30:15.285Z,1.95
2022-10-03T13:31:27.329Z,1.70
2022-10-03T13:32:43.020Z,2.17
2022-10-03T13:33:51.060Z,1.77
2022-10-03T13:35:24.567Z,2.17
2022-10-03T13:36:30.489Z,1.85
2022-10-03T13:37:58.739Z,1.60
2022-10-03T13:39:13.333Z,1.98
2022-10-03T13:40:19.361Z,1.70
2022-10-03T13:41:27.538Z,1.67
2022-10-03T13:42:39.942Z,1.83
2022-10-03T13:43:51.206Z,2.15
2022-10-03T13:44:59.519Z,1.88
2022-10-03T13:46:06.404Z,2.08
2022-10-03T13:47:42.003Z,2.25
2022-10-03T13:48:55.777Z,1.85
2022-10-03T13:50:02.651Z,2.08
2022-10-03T13:51:22.111Z,1.60
2022-10-03T13:52:30.292Z,1.70
2022-10-03T13:54:19.989Z,1.77
2022-10-03T13:55:34.047Z,2.22
2022-10-03T13:57:04.250Z,1.77
2022-10-03T13:58:45.592Z,1.92
2022-10-03T14:00:08.887Z,1.90
2022-10-03T14:01:35.821Z,1.85
2022-10-03T14:03:08.782Z,1.60
2022-10-03T14:04:41.587Z,1.70
2022-10-03T14:06:24.221Z,1.60
2022-10-03T14:07:49.767Z,1.83
2022-10-03T14:09:16.444Z,1.70
2022-10-03T14:10:26.696Z,1.60
2022-10-03T14:11:47.278Z,1.98
2022-10-03T14:13:26.125Z,2.25
2022-10-03T14:15:07.742Z,1.83
2022-10-03T14:16:23.436Z,2.00
2022-10-03T14:17:39.790Z,1.75
2022-10-03T14:19:12.716Z,1.92
2022-10-03T14:20:25.029Z,1.90
2022-10-03T14:22:06.208Z,1.70
2022-10-03T14:23:20.450Z,1.85
2022-10-03T14:24:22.680Z,2.10
2022-10-03T14:25:32.751Z,1.98
2022-10-03T14:26:57.762Z,1.90
2022-10-03T14:28:19.070Z,2.00
2022-10-03T14:29:54.767Z,1.90
2022-10-03T14:31:26.846Z,2.22
2022-10-03T14:32:57.148Z,1.70
2022-10-03T14:34:08.384Z,1.73
2022-10-03T14:35:13.664Z,1.90
2022-10-03T14:36:25.318Z,1.85
2022-10-03T14:37:43.029Z,1.90
2022-10-03T14:39:05.223Z,1.83
2022-10-03T14:40:35.685Z,1.80
2022-10-03T14:41:56.059Z,2.05
2022-10-03T14:43:26.180Z,1.63
2022-10-03T14:44:40.420Z,2.00
2022-10-03T14:46:04.914Z,1.80
2022-10-03T14:47:16.439Z,1.90
2022-10-03T14:48:50.030Z,1.75
2022-10-03T14:49:59.970Z,1.60
2022-10-03T14:51:41.788Z,1.73
2022-10-03T14:53:02.470Z,1.70
2022-10-03T14:54:21.798Z,1.77
2022-10-03T14:55:29.897Z,1.55
2022-10-03T14:56:43.879Z,1.63
2022-10-03T14:58:10.421Z,1.60
2022-10-03T14:59:23.344Z,1.58
2022-10-03T15:00:35.781Z,1.58
2022-10-03T15:01:49.809Z,1.60
2022-10-03T15:02:52.159Z,1.42
2022-10-03T15:04:01.726Z,1.58
2022-10-03T15:05:17.839Z,1.98
2022-10-03T15:06:33.252Z,1.55
2022-10-03T15:07:43.287Z,1.60
2022-10-03T15:08:58.016Z,1.88
2022-10-03T15:10:02.807Z,1.40
2022-10-03T15:11:07.371Z,1.67
2022-10-03T15:12:24.073Z,1.50
2022-10-03T15:13:33.722Z,1.50
2022-10-03T15:14:41.060Z,1.38
2022-10-03T15:15:46.892Z,1.48
2022-10-03T15:16:57.828Z,1.38
2022-10-03T15:18:04.682Z,1.23
2022-10-03T15:19:26.187Z,1.70
2022-10-03T15:20:35.056Z,1.55
2022-10-03T15:21:45.379Z,1.50
2022-10-03T15:22:53.758Z,1.63
2022-10-03T15:24:07.830Z,1.90
2022-10-03T15:25:18.195Z,1.60
2022-10-03T15:26:24.797Z,1.90
2022-10-03T15:27:29.060Z,1.60
2022-10-03T15:28:39.187Z,1.55
2022-10-03T15:29:41.996Z,1.92
2022-10-03T15:30:46.362Z,1.67
2022-10-03T15:31:49.498Z,1.50
2022-10-03T15:32:56.843Z,1.80
2022-10-03T15:34:01.883Z,1.45
2022-10-03T15:35:06.179Z,1.90
2022-10-03T15:36:30.873Z,1.70
2022-10-03T15:37:41.852Z,1.80
2022-10-03T15:38:54.808Z,1.73
2022-10-03T15:40:03.371Z,1.90
2022-10-03T15:41:11.597Z,1.80
2022-10-03T15:42:23.443Z,1.75
2022-10-03T15:43:34.573Z,1.80
2022-10-03T15:44:39.991Z,1.38
2022-10-03T15:45:43.770Z,1.80
2022-10-03T15:46:53.206Z,1.60
2022-10-03T15:48:01.503Z,1.77
2022-10-03T15:49:09.709Z,1.77
2022-10-03T15:50:24.213Z,2.10
2022-10-03T15:51:30.336Z,1.80
2022-10-03T15:52:41.998Z,1.92
2022-10-03T15:53:49.629Z,1.73
2022-10-03T15:55:11.170Z,1.50
2022-10-03T15:56:19.987Z,2.00
2022-10-03T15:57:29.307Z,2.00
2022-10-03T15:58:37.755Z,1.67
2022-10-03T15:59:45.409Z,1.80
2022-10-03T16:01:00.838Z,1.95
2022-10-03T16:02:19.116Z,1.75
2022-10-03T16:03:31.531Z,2.08
2022-10-03T16:04:35.356Z,1.75
2022-10-03T16:05:51.562Z,1.90
2022-10-03T16:07:09.419Z,1.73
2022-10-03T16:08:20.616Z,2.03
2022-10-03T16:09:38.390Z,2.00
2022-10-03T16:10:49.993Z,2.00
2022-10-03T16:12:39.955Z,2.10
2022-10-03T16:13:49.159Z,2.05
2022-10-03T16:15:02.770Z,1.92
2022-10-03T16:16:10.812Z,1.90
2022-10-03T16:17:29.162Z,1.85
2022-10-03T16:18:57.962Z,2.33
2022-10-03T16:20:10.074Z,1.85
2022-10-03T16:21:48.338Z,2.03
2022-10-03T16:22:57.387Z,2.05
2022-10-03T16:24:03.069Z,2.10
2022-10-03T16:25:26.948Z,2.03
2022-10-03T16:26:34.780Z,2.28
2022-10-03T16:27:41.635Z,2.50
2022-10-03T16:28:50.755Z,2.25
2022-10-03T16:30:15.003Z,2.20
2022-10-03T16:31:28.798Z,1.85
2022-10-03T16:32:33.423Z,2.20
2022-10-03T16:33:39.288Z,2.53
2022-10-03T16:34:44.928Z,2.00
2022-10-03T16:36:17.642Z,2.10
2022-10-03T16:37:27.222Z,1.88
2022-10-03T16:38:35.889Z,1.90
2022-10-03T16:39:47.379Z,1.88
2022-10-03T16:40:57.037Z,2.35
2022-10-03T16:42:00.801Z,2.10
2022-10-03T16:43:09.772Z,2.17
2022-10-03T16:44:47.483Z,2.00
2022-10-03T16:45:49.967Z,1.77
2022-10-03T16:46:55.458Z,1.80
2022-10-03T16:48:19.582Z,2.03
2022-10-03T16:50:02.081Z,1.80
2022-10-03T16:51:06.651Z,1.90
2022-10-03T16:52:21.011Z,1.90
2022-10-03T16:53:24.440Z,1.85
2022-10-03T16:54:28.572Z,1.80
2022-10-03T16:55:36.196Z,1.75
2022-10-03T16:56:47.380Z,1.80
2022-10-03T16:57:55.834Z,1.90
2022-10-03T16:59:11.211Z,1.65
2022-10-03T17:00:17.662Z,1.75
2022-10-03T17:01:45.618Z,1.83
2022-10-03T17:02:49.485Z,2.10
2022-10-03T17:04:10.146Z,1.85
2022-10-03T17:05:15.316Z,2.05
2022-10-03T17:06:28.047Z,2.28
2022-10-03T17:07:38.217Z,1.70
2022-10-03T17:08:46.456Z,1.67
2022-10-03T17:09:54.209Z,1.70
2022-10-03T17:11:00.425Z,1.58
2022-10-03T17:12:07.085Z,1.55
2022-10-03T17:13:16.608Z,1.60
2022-10-03T17:14:20.719Z,1.77
2022-10-03T17:15:28.022Z,1.83
2022-10-03T17:16:50.928Z,1.95
2022-10-03T17:18:16.992Z,1.67
2022-10-03T17:19:30.993Z,1.48
2022-10-03T17:20:56.584Z,1.65
2022-10-03T17:22:07.363Z,1.67
2022-10-03T17:23:20.471Z,1.65
2022-10-03T17:24:41.045Z,1.83
2022-10-03T17:26:10.808Z,1.45
2022-10-03T17:27:31.807Z,1.67
2022-10-03T17:28:37.723Z,1.50
2022-10-03T17:29:49.604Z,1.60
2022-10-03T17:30:55.938Z,1.88
2022-10-03T17:32:15.066Z,1.67
2022-10-03T17:33:31.786Z,2.20
2022-10-03T17:34:40.703Z,1.90
2022-10-03T17:36:03.072Z,1.38
2022-10-03T17:37:19.873Z,1.63
2022-10-03T17:38:50.255Z,1.70
2022-10-03T17:39:59.317Z,1.40
2022-10-03T17:41:20.569Z,1.70
2022-10-03T17:42:45.223Z,1.65
2022-10-03T17:44:18.405Z,1.75
2022-10-03T17:45:42.653Z,1.52
2022-10-03T17:47:01.029Z,1.65
2022-10-03T17:48:12.228Z,1.95
2022-10-03T17:49:20.830Z,1.98
2022-10-03T17:50:43.822Z,1.67
2022-10-03T17:51:50.205Z,1.90
2022-10-03T17:52:54.672Z,2.00
2022-10-03T17:54:00.125Z,1.77
2022-10-03T17:55:05.456Z,1.73
2022-10-03T17:56:14.934Z,2.13
2022-10-03T17:57:44.678Z,1.52
2022-10-03T17:58:55.857Z,1.70
2022-10-03T18:00:09.311Z,1.80
2022-10-03T18:01:18.444Z,1.92
2022-10-03T18:02:26.618Z,2.05
2022-10-03T18:03:36.013Z,1.90
2022-10-03T18:04:43.307Z,1.90
2022-10-03T18:05:49.406Z,1.83
2022-10-03T18:07:05.891Z,1.92
2022-10-03T18:08:14.545Z,1.90